METAR Data
IDs: Format: Raw Decoded Include TAF

Data at: 1341 UTC 10 Aug 2022

KSDM 101253Z AUTO 00000KT 10SM CLR 19/17 A2997 RMK AO2 SLP141 T01890172
KSDM 101221Z AUTO 00000KT 6SM BR SCT003 20/19 A2996 RMK AO2 T02000189
KSDM 101216Z AUTO 00000KT 2 1/2SM BR BKN003 20/19 A2996 RMK AO2 T02000189
KSDM 101213Z AUTO 00000KT 1SM BR VV003 20/19 A2996 RMK AO2 T02000194
KSDM 101153Z AUTO 00000KT 1/4SM FG VV002 21/19 A2996 RMK AO2 SLP140 T02060194 10222 20200 55003
KSDM 101147Z AUTO 00000KT 3/4SM BR OVC002 21/19 A2996 RMK AO2 VIS 1/4V2 1/2
KSDM 101144Z AUTO 00000KT 2SM BR OVC002 21/19 A2996 RMK AO2 VIS 1V4 T02060194
KSDM 101123Z AUTO 00000KT 6SM BR BKN002 21/19 A2996 RMK AO2 T02060189
KSDM 101114Z AUTO 00000KT 6SM BR SCT002 21/19 A2996 RMK AO2 T02060194
KSDM 101053Z AUTO 00000KT 6SM BR CLR 21/19 A2996 RMK AO2 SLP140 T02110194
KSDM 100953Z AUTO 00000KT 8SM CLR 21/19 A2997 RMK AO2 SLP143 T02110194
KSDM 100853Z AUTO 00000KT 8SM CLR 21/19 A2997 RMK AO2 SLP143 T02110194 58001
KSDM 100753Z AUTO 00000KT 9SM CLR 21/19 A2997 RMK AO2 SLP143 T02110194 403060200
KSDM 100653Z AUTO 00000KT 9SM CLR 22/19 A2998 RMK AO2 SLP146 T02170194
KSDM 100553Z AUTO 30003KT 9SM CLR 22/19 A2998 RMK AO2 SLP145 T02170194 10306 20217 51013
KSDM 100453Z AUTO 31004KT 10SM CLR 22/19 A2998 RMK AO2 SLP145 T02220194
KSDM 100353Z AUTO 32003KT 10SM CLR 23/19 A2995 RMK AO2 SLP138 T02280189
KSDM 100253Z VRB03KT 10SM CLR 24/18 A2994 RMK AO2 SLP132 T02440178 53009
KSDM 100153Z VRB04KT 10SM CLR 27/14 A2992 RMK AO2 SLP125 T02720144
KSDM 100053Z 29007KT 10SM CLR 28/14 A2991 RMK AO2 SLP121 T02830139
KSDM 092353Z VRB05KT 10SM CLR 30/16 A2991 RMK AO2 SLP123 T03000156 10306 20278 58007
KSDM 092253Z 33006KT 10SM CLR 29/18 A2992 RMK AO2 SLP126 T02890183
KSDM 092153Z 27008KT 10SM CLR 28/17 A2993 RMK AO2 SLP129 T02830167
KSDM 092053Z 26010KT 10SM CLR 29/19 A2993 RMK AO2 SLP131 T02890189 58006
KSDM 091953Z 30006KT 10SM CLR 30/18 A2995 RMK AO2 SLP135 T03000178
KSDM 091853Z 30007KT 270V340 10SM CLR 29/18 A2994 RMK AO2 SLP134 T02940183
KSDM 091753Z VRB06KT 10SM CLR 29/19 A2995 RMK AO2 SLP136 T02940189 10294 20200 51001
KSDM 091653Z 32003KT 10SM CLR 28/18 A2995 RMK AO2 SLP136 T02830183
KSDM 091553Z 31004KT 10SM CLR 26/17 A2995 RMK AO2 SLP137 T02560172
KSDM 091453Z 00000KT 8SM CLR 23/19 A2995 RMK AO2 SLP136 T02280189 53011
KSDM 091353Z AUTO 00000KT 7SM CLR 21/19 A2994 RMK AO2 SLP134 T02110194
KSDM 091253Z AUTO 00000KT 6SM BR CLR 21/19 A2992 RMK AO2 SLP125 T02060189
KSDM 091153Z AUTO 00000KT 6SM BR CLR 21/19 A2991 RMK AO2 SLP124 T02060189 10222 20206 53001
KSDM 091053Z AUTO 00000KT 7SM CLR 21/19 A2991 RMK AO2 SLP122 T02110189
KSDM 090953Z AUTO 00000KT 9SM CLR 21/19 A2991 RMK AO2 SLP122 T02110189
KSDM 090853Z AUTO 00000KT 10SM CLR 21/18 A2991 RMK AO2 SLP123 T02110183 58013
KSDM 090753Z AUTO 00000KT 10SM CLR 22/17 A2993 RMK AO2 SLP127 T02170172 403000178
KSDM 090653Z AUTO 26003KT 10SM CLR 22/16 A2994 RMK AO2 SLP133 T02170161
KSDM 090553Z AUTO 00000KT 10SM CLR 22/17 A2995 RMK AO2 SLP136 T02220172 10289 20222 53011
KSDM 090453Z AUTO 00000KT 10SM CLR 22/18 A2994 RMK AO2 SLP132 T02220178
KSDM 090353Z AUTO 28006KT 10SM CLR 23/17 A2993 RMK AO2 SLP130 T02280167
KSDM 090253Z VRB03KT 10SM CLR 23/17 A2992 RMK AO2 SLP126 T02330172 51010
KSDM 090153Z 29006KT 10SM CLR 24/18 A2991 RMK AO2 SLP122 T02440178